sensor_id;sensor_type;location;lat;lon;timestamp;temperature;humidity
71128;SHT30;59249;59.736;30.568;2024-03-25T00:02:08;2.86;90.68
71128;SHT30;59249;59.736;30.568;2024-03-25T00:04:39;2.81;90.77
71128;SHT30;59249;59.736;30.568;2024-03-25T00:07:10;2.85;90.81
71128;SHT30;59249;59.736;30.568;2024-03-25T00:09:51;2.79;90.90
71128;SHT30;59249;59.736;30.568;2024-03-25T00:12:44;2.73;90.81
71128;SHT30;59249;59.736;30.568;2024-03-25T00:15:23;2.75;91.19
71128;SHT30;59249;59.736;30.568;2024-03-25T00:18:22;2.79;91.14
71128;SHT30;59249;59.736;30.568;2024-03-25T00:20:52;2.74;91.28
71128;SHT30;59249;59.736;30.568;2024-03-25T00:23:23;2.81;91.12
71128;SHT30;59249;59.736;30.568;2024-03-25T00:26:02;2.84;91.17
71128;SHT30;59249;59.736;30.568;2024-03-25T00:28:36;2.86;91.22
71128;SHT30;59249;59.736;30.568;2024-03-25T00:31:08;2.83;91.23
71128;SHT30;59249;59.736;30.568;2024-03-25T00:33:36;2.83;91.74
71128;SHT30;59249;59.736;30.568;2024-03-25T00:36:05;2.81;91.62
71128;SHT30;59249;59.736;30.568;2024-03-25T00:38:34;2.79;91.57
71128;SHT30;59249;59.736;30.568;2024-03-25T00:41:10;2.83;91.65
71128;SHT30;59249;59.736;30.568;2024-03-25T00:43:43;2.76;91.89
71128;SHT30;59249;59.736;30.568;2024-03-25T00:46:16;2.84;92.10
71128;SHT30;59249;59.736;30.568;2024-03-25T00:48:44;2.67;92.12
71128;SHT30;59249;59.736;30.568;2024-03-25T00:51:12;2.85;92.08
71128;SHT30;59249;59.736;30.568;2024-03-25T00:53:42;2.83;92.31
71128;SHT30;59249;59.736;30.568;2024-03-25T00:56:12;2.79;92.16
71128;SHT30;59249;59.736;30.568;2024-03-25T00:58:40;2.84;92.13
71128;SHT30;59249;59.736;30.568;2024-03-25T01:01:08;2.84;92.19
71128;SHT30;59249;59.736;30.568;2024-03-25T01:03:35;2.63;92.72
71128;SHT30;59249;59.736;30.568;2024-03-25T01:06:04;2.75;92.54
71128;SHT30;59249;59.736;30.568;2024-03-25T01:08:31;2.70;92.54
71128;SHT30;59249;59.736;30.568;2024-03-25T01:11:03;2.73;92.60
71128;SHT30;59249;59.736;30.568;2024-03-25T01:13:31;2.75;92.72
71128;SHT30;59249;59.736;30.568;2024-03-25T01:15:59;2.79;92.64
71128;SHT30;59249;59.736;30.568;2024-03-25T01:18:26;2.77;92.64
71128;SHT30;59249;59.736;30.568;2024-03-25T01:20:54;2.79;92.66
71128;SHT30;59249;59.736;30.568;2024-03-25T01:23:23;2.83;92.64
71128;SHT30;59249;59.736;30.568;2024-03-25T01:25:52;2.93;92.62
71128;SHT30;59249;59.736;30.568;2024-03-25T01:28:21;2.81;92.61
71128;SHT30;59249;59.736;30.568;2024-03-25T01:30:51;2.86;92.49
71128;SHT30;59249;59.736;30.568;2024-03-25T01:33:22;2.88;92.34
71128;SHT30;59249;59.736;30.568;2024-03-25T01:35:51;2.91;92.26
71128;SHT30;59249;59.736;30.568;2024-03-25T01:38:28;2.91;92.32
71128;SHT30;59249;59.736;30.568;2024-03-25T01:41:10;2.81;92.38
71128;SHT30;59249;59.736;30.568;2024-03-25T01:43:46;2.88;92.30
71128;SHT30;59249;59.736;30.568;2024-03-25T01:46:17;2.85;92.36
71128;SHT30;59249;59.736;30.568;2024-03-25T01:49:01;2.92;92.35
71128;SHT30;59249;59.736;30.568;2024-03-25T01:51:40;2.87;92.39
71128;SHT30;59249;59.736;30.568;2024-03-25T01:54:31;2.87;92.51
71128;SHT30;59249;59.736;30.568;2024-03-25T01:57:05;2.84;92.69
71128;SHT30;59249;59.736;30.568;2024-03-25T01:59:40;2.85;92.60
71128;SHT30;59249;59.736;30.568;2024-03-25T02:02:26;2.89;92.86
71128;SHT30;59249;59.736;30.568;2024-03-25T02:04:59;2.82;92.87
71128;SHT30;59249;59.736;30.568;2024-03-25T02:07:41;2.81;92.95
71128;SHT30;59249;59.736;30.568;2024-03-25T02:10:18;2.85;93.00
71128;SHT30;59249;59.736;30.568;2024-03-25T02:12:50;2.79;93.77
71128;SHT30;59249;59.736;30.568;2024-03-25T02:15:22;2.78;93.46
71128;SHT30;59249;59.736;30.568;2024-03-25T02:17:57;2.76;93.50
71128;SHT30;59249;59.736;30.568;2024-03-25T02:20:31;2.76;93.68
71128;SHT30;59249;59.736;30.568;2024-03-25T02:23:01;2.81;93.37
71128;SHT30;59249;59.736;30.568;2024-03-25T02:25:31;2.79;93.30
71128;SHT30;59249;59.736;30.568;2024-03-25T02:28:15;2.83;93.33
71128;SHT30;59249;59.736;30.568;2024-03-25T02:30:44;2.78;93.49
71128;SHT30;59249;59.736;30.568;2024-03-25T02:33:14;2.79;93.56
71128;SHT30;59249;59.736;30.568;2024-03-25T02:35:43;2.86;93.62
71128;SHT30;59249;59.736;30.568;2024-03-25T02:38:13;2.83;93.45
71128;SHT30;59249;59.736;30.568;2024-03-25T02:40:46;2.77;93.42
71128;SHT30;59249;59.736;30.568;2024-03-25T02:43:21;2.71;94.25
71128;SHT30;59249;59.736;30.568;2024-03-25T02:45:57;2.86;93.56
71128;SHT30;59249;59.736;30.568;2024-03-25T02:48:31;2.85;93.61
71128;SHT30;59249;59.736;30.568;2024-03-25T02:51:04;2.81;93.65
71128;SHT30;59249;59.736;30.568;2024-03-25T02:53:37;2.93;93.64
71128;SHT30;59249;59.736;30.568;2024-03-25T02:56:18;2.92;93.51
71128;SHT30;59249;59.736;30.568;2024-03-25T02:59:06;2.87;93.37
71128;SHT30;59249;59.736;30.568;2024-03-25T03:01:35;2.93;93.21
71128;SHT30;59249;59.736;30.568;2024-03-25T03:04:07;2.78;93.19
71128;SHT30;59249;59.736;30.568;2024-03-25T03:06:43;2.76;93.33
71128;SHT30;59249;59.736;30.568;2024-03-25T03:09:15;2.77;93.73
71128;SHT30;59249;59.736;30.568;2024-03-25T03:11:43;2.74;93.48
71128;SHT30;59249;59.736;30.568;2024-03-25T03:14:22;2.79;93.37
71128;SHT30;59249;59.736;30.568;2024-03-25T03:16:56;2.79;93.46
71128;SHT30;59249;59.736;30.568;2024-03-25T03:19:40;2.72;93.87
71128;SHT30;59249;59.736;30.568;2024-03-25T03:22:08;2.72;93.32
71128;SHT30;59249;59.736;30.568;2024-03-25T03:24:38;2.73;93.29
71128;SHT30;59249;59.736;30.568;2024-03-25T03:27:18;2.85;93.18
71128;SHT30;59249;59.736;30.568;2024-03-25T03:29:51;2.79;93.41
71128;SHT30;59249;59.736;30.568;2024-03-25T03:32:18;2.85;93.46
71128;SHT30;59249;59.736;30.568;2024-03-25T03:34:53;2.89;93.40
71128;SHT30;59249;59.736;30.568;2024-03-25T03:37:28;2.83;93.42
71128;SHT30;59249;59.736;30.568;2024-03-25T03:40:06;2.82;93.46
71128;SHT30;59249;59.736;30.568;2024-03-25T03:42:33;2.93;93.40
71128;SHT30;59249;59.736;30.568;2024-03-25T03:45:07;2.92;93.67
71128;SHT30;59249;59.736;30.568;2024-03-25T03:47:35;2.79;93.74
71128;SHT30;59249;59.736;30.568;2024-03-25T03:50:05;2.86;93.86
71128;SHT30;59249;59.736;30.568;2024-03-25T03:52:32;2.94;94.03
71128;SHT30;59249;59.736;30.568;2024-03-25T03:55:04;2.91;93.99
71128;SHT30;59249;59.736;30.568;2024-03-25T03:57:39;2.91;94.20
71128;SHT30;59249;59.736;30.568;2024-03-25T04:00:17;2.94;94.16
71128;SHT30;59249;59.736;30.568;2024-03-25T04:02:46;2.98;94.35
71128;SHT30;59249;59.736;30.568;2024-03-25T04:05:21;2.96;94.47
71128;SHT30;59249;59.736;30.568;2024-03-25T04:07:48;3.04;94.46
71128;SHT30;59249;59.736;30.568;2024-03-25T04:10:20;2.93;94.41
71128;SHT30;59249;59.736;30.568;2024-03-25T04:12:49;3.04;94.16
71128;SHT30;59249;59.736;30.568;2024-03-25T04:15:26;2.96;94.14
71128;SHT30;59249;59.736;30.568;2024-03-25T04:17:53;3.04;94.15
71128;SHT30;59249;59.736;30.568;2024-03-25T04:20:23;3.06;93.99
71128;SHT30;59249;59.736;30.568;2024-03-25T04:22:50;3.11;93.87
71128;SHT30;59249;59.736;30.568;2024-03-25T04:25:18;3.20;93.75
71128;SHT30;59249;59.736;30.568;2024-03-25T04:27:45;3.13;93.68
71128;SHT30;59249;59.736;30.568;2024-03-25T04:30:20;3.25;93.56
71128;SHT30;59249;59.736;30.568;2024-03-25T04:32:54;3.13;93.35
71128;SHT30;59249;59.736;30.568;2024-03-25T04:35:24;3.11;93.65
71128;SHT30;59249;59.736;30.568;2024-03-25T04:38:03;3.27;93.62
71128;SHT30;59249;59.736;30.568;2024-03-25T04:40:35;3.27;93.41
71128;SHT30;59249;59.736;30.568;2024-03-25T04:43:06;3.31;93.32
71128;SHT30;59249;59.736;30.568;2024-03-25T04:45:36;3.26;93.17
71128;SHT30;59249;59.736;30.568;2024-03-25T04:48:06;3.25;93.09
71128;SHT30;59249;59.736;30.568;2024-03-25T04:50:35;3.37;93.13
71128;SHT30;59249;59.736;30.568;2024-03-25T04:53:02;3.34;93.02
71128;SHT30;59249;59.736;30.568;2024-03-25T04:55:29;3.46;92.99
71128;SHT30;59249;59.736;30.568;2024-03-25T04:57:56;3.32;92.75
71128;SHT30;59249;59.736;30.568;2024-03-25T05:00:23;3.38;92.65
71128;SHT30;59249;59.736;30.568;2024-03-25T05:02:58;3.20;92.60
71128;SHT30;59249;59.736;30.568;2024-03-25T05:05:27;3.22;92.49
71128;SHT30;59249;59.736;30.568;2024-03-25T05:08:01;3.21;92.63
71128;SHT30;59249;59.736;30.568;2024-03-25T05:10:29;3.10;92.74
71128;SHT30;59249;59.736;30.568;2024-03-25T05:12:58;3.03;92.96
71128;SHT30;59249;59.736;30.568;2024-03-25T05:15:26;2.99;92.90
71128;SHT30;59249;59.736;30.568;2024-03-25T05:17:55;2.97;93.18
71128;SHT30;59249;59.736;30.568;2024-03-25T05:20:24;2.97;93.22
71128;SHT30;59249;59.736;30.568;2024-03-25T05:22:54;2.90;93.46
71128;SHT30;59249;59.736;30.568;2024-03-25T05:25:21;2.90;93.68
71128;SHT30;59249;59.736;30.568;2024-03-25T05:27:53;2.88;93.66
71128;SHT30;59249;59.736;30.568;2024-03-25T05:30:21;2.97;93.71
71128;SHT30;59249;59.736;30.568;2024-03-25T05:32:49;2.95;93.82
71128;SHT30;59249;59.736;30.568;2024-03-25T05:35:16;2.95;93.78
71128;SHT30;59249;59.736;30.568;2024-03-25T05:37:43;2.93;93.83
71128;SHT30;59249;59.736;30.568;2024-03-25T05:40:12;2.98;93.95
71128;SHT30;59249;59.736;30.568;2024-03-25T05:42:40;3.11;94.00
71128;SHT30;59249;59.736;30.568;2024-03-25T05:45:09;3.09;94.31
71128;SHT30;59249;59.736;30.568;2024-03-25T05:47:38;3.23;94.37
71128;SHT30;59249;59.736;30.568;2024-03-25T05:50:08;3.42;94.05
71128;SHT30;59249;59.736;30.568;2024-03-25T05:52:36;3.43;93.46
71128;SHT30;59249;59.736;30.568;2024-03-25T05:55:03;3.46;93.17
71128;SHT30;59249;59.736;30.568;2024-03-25T05:57:33;3.53;92.94
71128;SHT30;59249;59.736;30.568;2024-03-25T06:00:00;3.45;92.92
71128;SHT30;59249;59.736;30.568;2024-03-25T06:02:27;3.50;92.66
71128;SHT30;59249;59.736;30.568;2024-03-25T06:04:54;3.49;92.98
71128;SHT30;59249;59.736;30.568;2024-03-25T06:07:22;3.51;92.90
71128;SHT30;59249;59.736;30.568;2024-03-25T06:09:49;3.71;93.11
71128;SHT30;59249;59.736;30.568;2024-03-25T06:12:16;3.91;92.47
71128;SHT30;59249;59.736;30.568;2024-03-25T06:14:44;3.86;92.23
71128;SHT30;59249;59.736;30.568;2024-03-25T06:17:11;3.98;92.21
71128;SHT30;59249;59.736;30.568;2024-03-25T06:19:40;4.09;91.97
71128;SHT30;59249;59.736;30.568;2024-03-25T06:22:08;4.33;91.98
71128;SHT30;59249;59.736;30.568;2024-03-25T06:24:35;4.46;91.28
71128;SHT30;59249;59.736;30.568;2024-03-25T06:27:02;4.41;91.02
71128;SHT30;59249;59.736;30.568;2024-03-25T06:29:29;4.42;90.52
71128;SHT30;59249;59.736;30.568;2024-03-25T06:31:57;4.48;90.38
71128;SHT30;59249;59.736;30.568;2024-03-25T06:34:43;4.41;90.23
71128;SHT30;59249;59.736;30.568;2024-03-25T06:37:10;4.40;89.53
71128;SHT30;59249;59.736;30.568;2024-03-25T06:39:37;4.48;89.91
71128;SHT30;59249;59.736;30.568;2024-03-25T06:42:05;4.34;89.69
71128;SHT30;59249;59.736;30.568;2024-03-25T06:44:32;4.39;89.67
71128;SHT30;59249;59.736;30.568;2024-03-25T06:47:01;4.25;89.57
71128;SHT30;59249;59.736;30.568;2024-03-25T06:49:28;4.37;89.22
71128;SHT30;59249;59.736;30.568;2024-03-25T06:51:56;4.37;89.38
71128;SHT30;59249;59.736;30.568;2024-03-25T06:54:23;4.47;89.49
71128;SHT30;59249;59.736;30.568;2024-03-25T06:56:49;4.43;89.34
71128;SHT30;59249;59.736;30.568;2024-03-25T06:59:16;4.54;89.32
71128;SHT30;59249;59.736;30.568;2024-03-25T07:01:43;4.45;88.74
71128;SHT30;59249;59.736;30.568;2024-03-25T07:04:12;4.55;88.80
71128;SHT30;59249;59.736;30.568;2024-03-25T07:06:39;4.43;88.68
71128;SHT30;59249;59.736;30.568;2024-03-25T07:09:06;4.46;88.40
71128;SHT30;59249;59.736;30.568;2024-03-25T07:11:36;4.46;88.30
71128;SHT30;59249;59.736;30.568;2024-03-25T07:14:04;4.45;88.65
71128;SHT30;59249;59.736;30.568;2024-03-25T07:16:32;4.50;88.74
71128;SHT30;59249;59.736;30.568;2024-03-25T07:18:58;4.38;89.09
71128;SHT30;59249;59.736;30.568;2024-03-25T07:21:27;4.53;88.81
71128;SHT30;59249;59.736;30.568;2024-03-25T07:23:54;4.56;88.65
71128;SHT30;59249;59.736;30.568;2024-03-25T07:26:20;4.53;88.34
71128;SHT30;59249;59.736;30.568;2024-03-25T07:28:47;4.64;88.33
71128;SHT30;59249;59.736;30.568;2024-03-25T07:31:15;4.62;88.06
71128;SHT30;59249;59.736;30.568;2024-03-25T07:33:42;4.50;87.57
71128;SHT30;59249;59.736;30.568;2024-03-25T07:36:12;4.54;87.66
71128;SHT30;59249;59.736;30.568;2024-03-25T07:38:41;4.42;87.73
71128;SHT30;59249;59.736;30.568;2024-03-25T07:41:09;4.36;87.10
71128;SHT30;59249;59.736;30.568;2024-03-25T07:43:36;4.43;86.78
71128;SHT30;59249;59.736;30.568;2024-03-25T07:46:03;4.37;86.25
71128;SHT30;59249;59.736;30.568;2024-03-25T07:48:30;4.49;86.08
71128;SHT30;59249;59.736;30.568;2024-03-25T07:50:58;4.53;85.76
71128;SHT30;59249;59.736;30.568;2024-03-25T07:53:25;4.51;86.04
71128;SHT30;59249;59.736;30.568;2024-03-25T07:55:53;4.61;86.39
71128;SHT30;59249;59.736;30.568;2024-03-25T07:58:20;4.62;86.32
71128;SHT30;59249;59.736;30.568;2024-03-25T08:00:47;4.75;86.20
71128;SHT30;59249;59.736;30.568;2024-03-25T08:03:14;4.77;85.85
71128;SHT30;59249;59.736;30.568;2024-03-25T08:05:41;4.72;85.67
71128;SHT30;59249;59.736;30.568;2024-03-25T08:08:08;4.62;85.96
71128;SHT30;59249;59.736;30.568;2024-03-25T08:10:37;4.77;85.84
71128;SHT30;59249;59.736;30.568;2024-03-25T08:13:06;4.88;85.23
71128;SHT30;59249;59.736;30.568;2024-03-25T08:15:34;4.86;85.05
71128;SHT30;59249;59.736;30.568;2024-03-25T08:18:02;4.95;84.99
71128;SHT30;59249;59.736;30.568;2024-03-25T08:20:29;5.03;84.39
71128;SHT30;59249;59.736;30.568;2024-03-25T08:22:56;5.07;84.03
71128;SHT30;59249;59.736;30.568;2024-03-25T08:25:23;5.21;84.25
71128;SHT30;59249;59.736;30.568;2024-03-25T08:27:50;5.16;83.96
71128;SHT30;59249;59.736;30.568;2024-03-25T08:30:19;5.23;84.19
71128;SHT30;59249;59.736;30.568;2024-03-25T08:32:46;5.13;83.88
71128;SHT30;59249;59.736;30.568;2024-03-25T08:35:13;5.16;84.08
71128;SHT30;59249;59.736;30.568;2024-03-25T08:37:40;5.21;83.92
71128;SHT30;59249;59.736;30.568;2024-03-25T08:40:09;5.35;83.54
71128;SHT30;59249;59.736;30.568;2024-03-25T08:42:36;5.40;83.37
71128;SHT30;59249;59.736;30.568;2024-03-25T08:45:04;5.32;82.72
71128;SHT30;59249;59.736;30.568;2024-03-25T08:47:32;5.38;82.12
71128;SHT30;59249;59.736;30.568;2024-03-25T08:49:59;5.45;81.93
71128;SHT30;59249;59.736;30.568;2024-03-25T08:52:26;5.47;81.71
71128;SHT30;59249;59.736;30.568;2024-03-25T08:54:53;5.58;81.75
71128;SHT30;59249;59.736;30.568;2024-03-25T08:57:20;5.67;81.96
71128;SHT30;59249;59.736;30.568;2024-03-25T08:59:47;5.66;81.82
71128;SHT30;59249;59.736;30.568;2024-03-25T09:02:14;5.49;81.36
71128;SHT30;59249;59.736;30.568;2024-03-25T09:04:44;5.49;81.43
71128;SHT30;59249;59.736;30.568;2024-03-25T09:07:13;5.47;82.43
71128;SHT30;59249;59.736;30.568;2024-03-25T09:09:41;5.35;82.40
71128;SHT30;59249;59.736;30.568;2024-03-25T09:12:32;5.49;82.00
71128;SHT30;59249;59.736;30.568;2024-03-25T09:14:58;5.32;82.31
71128;SHT30;59249;59.736;30.568;2024-03-25T09:17:26;5.20;82.66
71128;SHT30;59249;59.736;30.568;2024-03-25T09:19:54;5.23;82.53
71128;SHT30;59249;59.736;30.568;2024-03-25T09:22:31;5.10;82.74
71128;SHT30;59249;59.736;30.568;2024-03-25T09:25:02;5.30;83.22
71128;SHT30;59249;59.736;30.568;2024-03-25T09:27:29;5.40;83.08
71128;SHT30;59249;59.736;30.568;2024-03-25T09:30:03;5.43;82.59
71128;SHT30;59249;59.736;30.568;2024-03-25T09:32:34;5.61;82.30
71128;SHT30;59249;59.736;30.568;2024-03-25T09:35:03;5.54;81.99
71128;SHT30;59249;59.736;30.568;2024-03-25T09:37:30;5.44;82.16
71128;SHT30;59249;59.736;30.568;2024-03-25T09:40:03;5.47;82.30
71128;SHT30;59249;59.736;30.568;2024-03-25T09:42:36;5.63;81.88
71128;SHT30;59249;59.736;30.568;2024-03-25T09:45:09;5.70;81.56
71128;SHT30;59249;59.736;30.568;2024-03-25T09:47:51;5.62;81.01
71128;SHT30;59249;59.736;30.568;2024-03-25T09:50:22;5.51;81.68
71128;SHT30;59249;59.736;30.568;2024-03-25T09:52:50;5.68;81.73
71128;SHT30;59249;59.736;30.568;2024-03-25T09:55:20;5.73;81.39
71128;SHT30;59249;59.736;30.568;2024-03-25T09:57:47;5.67;81.43
71128;SHT30;59249;59.736;30.568;2024-03-25T10:00:20;5.73;81.74
71128;SHT30;59249;59.736;30.568;2024-03-25T10:02:49;5.80;81.51
71128;SHT30;59249;59.736;30.568;2024-03-25T10:05:28;5.75;80.97
71128;SHT30;59249;59.736;30.568;2024-03-25T10:07:56;5.87;80.82
71128;SHT30;59249;59.736;30.568;2024-03-25T10:10:37;5.84;80.52
71128;SHT30;59249;59.736;30.568;2024-03-25T10:13:05;5.85;80.24
71128;SHT30;59249;59.736;30.568;2024-03-25T10:15:39;5.69;80.45
71128;SHT30;59249;59.736;30.568;2024-03-25T10:18:06;5.67;80.74
71128;SHT30;59249;59.736;30.568;2024-03-25T10:20:38;5.68;80.89
71128;SHT30;59249;59.736;30.568;2024-03-25T10:23:05;5.60;81.16
71128;SHT30;59249;59.736;30.568;2024-03-25T10:25:33;5.67;81.14
71128;SHT30;59249;59.736;30.568;2024-03-25T10:28:03;5.59;81.03
71128;SHT30;59249;59.736;30.568;2024-03-25T10:30:31;5.54;80.83
71128;SHT30;59249;59.736;30.568;2024-03-25T10:33:00;5.76;80.84
71128;SHT30;59249;59.736;30.568;2024-03-25T10:35:29;5.67;80.15
71128;SHT30;59249;59.736;30.568;2024-03-25T10:38:06;5.81;80.05
71128;SHT30;59249;59.736;30.568;2024-03-25T10:40:36;5.72;79.68
71128;SHT30;59249;59.736;30.568;2024-03-25T10:43:07;5.86;79.46
71128;SHT30;59249;59.736;30.568;2024-03-25T10:45:38;5.92;79.52
71128;SHT30;59249;59.736;30.568;2024-03-25T10:48:12;5.87;79.54
71128;SHT30;59249;59.736;30.568;2024-03-25T10:50:44;5.86;79.18
71128;SHT30;59249;59.736;30.568;2024-03-25T10:53:17;5.75;79.87
71128;SHT30;59249;59.736;30.568;2024-03-25T10:55:47;5.75;79.99
71128;SHT30;59249;59.736;30.568;2024-03-25T10:58:16;5.74;80.30
71128;SHT30;59249;59.736;30.568;2024-03-25T11:00:50;5.63;81.00
71128;SHT30;59249;59.736;30.568;2024-03-25T11:03:19;5.58;81.25
71128;SHT30;59249;59.736;30.568;2024-03-25T11:05:49;5.67;81.18
71128;SHT30;59249;59.736;30.568;2024-03-25T11:08:32;5.76;81.37
71128;SHT30;59249;59.736;30.568;2024-03-25T11:11:13;5.91;80.72
71128;SHT30;59249;59.736;30.568;2024-03-25T11:14:03;5.84;79.89
71128;SHT30;59249;59.736;30.568;2024-03-25T11:16:36;5.87;79.50
71128;SHT30;59249;59.736;30.568;2024-03-25T11:19:13;5.95;79.33
71128;SHT30;59249;59.736;30.568;2024-03-25T11:21:47;5.97;79.37
71128;SHT30;59249;59.736;30.568;2024-03-25T11:24:27;6.05;78.90
71128;SHT30;59249;59.736;30.568;2024-03-25T11:26:57;5.93;78.46
71128;SHT30;59249;59.736;30.568;2024-03-25T11:29:24;5.91;78.80
71128;SHT30;59249;59.736;30.568;2024-03-25T11:31:56;5.79;78.85
71128;SHT30;59249;59.736;30.568;2024-03-25T11:34:26;5.84;78.69
71128;SHT30;59249;59.736;30.568;2024-03-25T11:37:10;5.89;79.00
71128;SHT30;59249;59.736;30.568;2024-03-25T11:39:39;5.90;79.00
71128;SHT30;59249;59.736;30.568;2024-03-25T11:42:08;5.98;78.76
71128;SHT30;59249;59.736;30.568;2024-03-25T11:44:37;5.96;78.42
71128;SHT30;59249;59.736;30.568;2024-03-25T11:47:09;6.02;78.27
71128;SHT30;59249;59.736;30.568;2024-03-25T11:49:40;5.91;77.94
71128;SHT30;59249;59.736;30.568;2024-03-25T11:52:07;6.17;77.95
71128;SHT30;59249;59.736;30.568;2024-03-25T11:54:36;6.20;78.02
71128;SHT30;59249;59.736;30.568;2024-03-25T11:57:10;6.39;77.95
71128;SHT30;59249;59.736;30.568;2024-03-25T11:59:38;6.33;77.82
71128;SHT30;59249;59.736;30.568;2024-03-25T12:02:09;6.66;77.17
71128;SHT30;59249;59.736;30.568;2024-03-25T12:04:36;6.67;76.19
71128;SHT30;59249;59.736;30.568;2024-03-25T12:07:03;6.64;76.16
71128;SHT30;59249;59.736;30.568;2024-03-25T12:09:30;6.71;75.98
71128;SHT30;59249;59.736;30.568;2024-03-25T12:12:17;6.82;76.26
71128;SHT30;59249;59.736;30.568;2024-03-25T12:14:44;6.93;76.62
71128;SHT30;59249;59.736;30.568;2024-03-25T12:17:13;6.91;75.34
71128;SHT30;59249;59.736;30.568;2024-03-25T12:19:45;6.87;74.37
71128;SHT30;59249;59.736;30.568;2024-03-25T12:22:14;6.84;74.30
71128;SHT30;59249;59.736;30.568;2024-03-25T12:24:41;6.78;75.05
71128;SHT30;59249;59.736;30.568;2024-03-25T12:27:08;6.66;74.83
71128;SHT30;59249;59.736;30.568;2024-03-25T12:29:36;6.60;74.67
71128;SHT30;59249;59.736;30.568;2024-03-25T12:32:04;6.49;74.88
71128;SHT30;59249;59.736;30.568;2024-03-25T12:34:33;6.49;74.53
71128;SHT30;59249;59.736;30.568;2024-03-25T12:37:06;6.48;75.46
71128;SHT30;59249;59.736;30.568;2024-03-25T12:39:33;6.52;76.00
71128;SHT30;59249;59.736;30.568;2024-03-25T12:42:05;6.63;76.39
71128;SHT30;59249;59.736;30.568;2024-03-25T12:44:38;6.49;75.96
71128;SHT30;59249;59.736;30.568;2024-03-25T12:47:07;6.49;76.01
71128;SHT30;59249;59.736;30.568;2024-03-25T12:49:40;6.54;75.79
71128;SHT30;59249;59.736;30.568;2024-03-25T12:52:10;6.63;76.08
71128;SHT30;59249;59.736;30.568;2024-03-25T12:54:37;6.63;76.01
71128;SHT30;59249;59.736;30.568;2024-03-25T12:57:06;6.61;75.49
71128;SHT30;59249;59.736;30.568;2024-03-25T12:59:36;6.62;74.98
71128;SHT30;59249;59.736;30.568;2024-03-25T13:02:27;6.66;75.37
71128;SHT30;59249;59.736;30.568;2024-03-25T13:04:54;6.71;75.78
71128;SHT30;59249;59.736;30.568;2024-03-25T13:07:54;6.84;75.30
71128;SHT30;59249;59.736;30.568;2024-03-25T13:10:21;6.94;74.28
71128;SHT30;59249;59.736;30.568;2024-03-25T13:12:51;6.98;74.02
71128;SHT30;59249;59.736;30.568;2024-03-25T13:15:24;6.94;73.67
71128;SHT30;59249;59.736;30.568;2024-03-25T13:18:11;6.91;73.74
71128;SHT30;59249;59.736;30.568;2024-03-25T13:20:39;6.81;74.10
71128;SHT30;59249;59.736;30.568;2024-03-25T13:23:06;6.79;73.95
71128;SHT30;59249;59.736;30.568;2024-03-25T13:25:33;6.74;74.36
71128;SHT30;59249;59.736;30.568;2024-03-25T13:28:00;6.74;74.39
71128;SHT30;59249;59.736;30.568;2024-03-25T13:30:32;6.72;74.46
71128;SHT30;59249;59.736;30.568;2024-03-25T13:32:59;6.78;74.63
71128;SHT30;59249;59.736;30.568;2024-03-25T13:35:28;6.66;75.17
71128;SHT30;59249;59.736;30.568;2024-03-25T13:37:55;6.72;75.24
71128;SHT30;59249;59.736;30.568;2024-03-25T13:40:23;6.61;74.72
71128;SHT30;59249;59.736;30.568;2024-03-25T13:42:50;6.76;74.40
71128;SHT30;59249;59.736;30.568;2024-03-25T13:45:22;6.63;74.51
71128;SHT30;59249;59.736;30.568;2024-03-25T13:47:49;6.63;74.65
71128;SHT30;59249;59.736;30.568;2024-03-25T13:50:16;6.61;74.07
71128;SHT30;59249;59.736;30.568;2024-03-25T13:52:49;6.65;74.55
71128;SHT30;59249;59.736;30.568;2024-03-25T13:55:17;6.66;75.00
71128;SHT30;59249;59.736;30.568;2024-03-25T13:57:45;6.58;74.40
71128;SHT30;59249;59.736;30.568;2024-03-25T14:00:14;6.54;74.70
71128;SHT30;59249;59.736;30.568;2024-03-25T14:02:46;6.46;74.43
71128;SHT30;59249;59.736;30.568;2024-03-25T14:05:13;6.37;74.90
71128;SHT30;59249;59.736;30.568;2024-03-25T14:07:53;6.39;75.34
71128;SHT30;59249;59.736;30.568;2024-03-25T14:10:22;6.37;75.67
71128;SHT30;59249;59.736;30.568;2024-03-25T14:12:52;6.32;75.97
71128;SHT30;59249;59.736;30.568;2024-03-25T14:15:19;6.29;75.75
71128;SHT30;59249;59.736;30.568;2024-03-25T14:17:50;6.25;76.17
71128;SHT30;59249;59.736;30.568;2024-03-25T14:20:17;6.24;76.11
71128;SHT30;59249;59.736;30.568;2024-03-25T14:22:46;6.35;75.93
71128;SHT30;59249;59.736;30.568;2024-03-25T14:25:18;6.32;75.75
71128;SHT30;59249;59.736;30.568;2024-03-25T14:27:46;6.35;75.70
71128;SHT30;59249;59.736;30.568;2024-03-25T14:30:14;6.34;76.01
71128;SHT30;59249;59.736;30.568;2024-03-25T14:32:44;6.29;76.02
71128;SHT30;59249;59.736;30.568;2024-03-25T14:35:11;6.09;75.32
71128;SHT30;59249;59.736;30.568;2024-03-25T14:37:48;6.11;75.18
71128;SHT30;59249;59.736;30.568;2024-03-25T14:40:17;6.24;75.30
71128;SHT30;59249;59.736;30.568;2024-03-25T14:42:45;6.14;75.18
71128;SHT30;59249;59.736;30.568;2024-03-25T14:45:12;6.25;75.42
71128;SHT30;59249;59.736;30.568;2024-03-25T14:47:40;6.13;75.46
71128;SHT30;59249;59.736;30.568;2024-03-25T14:50:08;6.18;75.36
71128;SHT30;59249;59.736;30.568;2024-03-25T14:52:36;6.12;75.54
71128;SHT30;59249;59.736;30.568;2024-03-25T14:55:05;5.98;75.55
71128;SHT30;59249;59.736;30.568;2024-03-25T14:57:34;5.91;75.65
71128;SHT30;59249;59.736;30.568;2024-03-25T15:00:04;5.76;75.51
71128;SHT30;59249;59.736;30.568;2024-03-25T15:02:35;5.78;75.50
71128;SHT30;59249;59.736;30.568;2024-03-25T15:05:09;5.75;75.81
71128;SHT30;59249;59.736;30.568;2024-03-25T15:07:53;5.50;76.60
71128;SHT30;59249;59.736;30.568;2024-03-25T15:10:20;5.56;76.42
71128;SHT30;59249;59.736;30.568;2024-03-25T15:12:57;5.53;76.50
71128;SHT30;59249;59.736;30.568;2024-03-25T15:15:31;5.39;77.07
71128;SHT30;59249;59.736;30.568;2024-03-25T15:17:58;5.45;77.28
71128;SHT30;59249;59.736;30.568;2024-03-25T15:20:25;5.41;77.28
71128;SHT30;59249;59.736;30.568;2024-03-25T15:22:56;5.34;77.34
71128;SHT30;59249;59.736;30.568;2024-03-25T15:25:25;5.26;77.18
71128;SHT30;59249;59.736;30.568;2024-03-25T15:27:59;5.09;77.38
71128;SHT30;59249;59.736;30.568;2024-03-25T15:30:26;5.10;77.47
71128;SHT30;59249;59.736;30.568;2024-03-25T15:32:54;5.09;77.52
71128;SHT30;59249;59.736;30.568;2024-03-25T15:35:21;5.10;77.47
71128;SHT30;59249;59.736;30.568;2024-03-25T15:37:48;4.88;77.92
71128;SHT30;59249;59.736;30.568;2024-03-25T15:40:21;4.90;78.14
71128;SHT30;59249;59.736;30.568;2024-03-25T15:42:56;4.77;78.49
71128;SHT30;59249;59.736;30.568;2024-03-25T15:45:25;4.86;78.21
71128;SHT30;59249;59.736;30.568;2024-03-25T15:48:00;4.68;78.12
71128;SHT30;59249;59.736;30.568;2024-03-25T15:50:42;4.62;77.99
71128;SHT30;59249;59.736;30.568;2024-03-25T15:53:15;4.62;78.48